Aérodrome :
LOGIN :

S'inscrire | Disclaimer

   EN    FR    IT 

 










Légende :    VFR   VFR Marginal   IFR   IFR Intensif   IFR Très Intensif
Visi : 
Plafond : 
>= 8 km
>= 3000ft
5 à 8 km
1000 à 3000 ft
1500m à 5 km
500 à 1000 ft
800 à 1500m
200 à 500 ft
< 800m
< 200 ft
Symboles :   Orages  Brouillard  Fortes neiges  Fortes précipitations  Vent > 20 kt
SIGMETs :   Divers  Orages  Givrage  Turbulence  Onde Orograph.  Cendres Volcan.






- Altitude de l'aérodrome : 364 ft
- Code IATA : FRA


EDDF - Frankfurt Int.

DERNIER METAR :
  • 250750Z VRB01KT 7000 MIFG SCT014 M03/M03 Q1033 BECMG 3000 BCFG

METARs EXPIRÉS :
  • 250720Z VRB02KT 6000 MIFG SCT014 M02/M03 Q1033 BECMG 3000 BCFG
  • 250650Z 12003KT 070V160 5000 MIFG BR SCT014 M03/M04 Q1033 BECMG 3000 BCFG
  • 250620Z VRB02KT 6000 MIFG FEW001 M02/M03 Q1033 BECMG 3000 BCFG
  • 250550Z 08003KT 8000 MIFG FEW001 M02/M03 Q1033 BECMG 3000 BCFG

TAF TAF EDDF
Valide du 25 à 06h jusqu'au 26 à 12h UTC


250500Z 2506/2612 08003KT CAVOK
TEMPO 2506/2510 0500 FZFG
BECMG 2510/2514 4000 BR BKN008
BECMG 2516/2520 0800 FZFG BKN001
BECMG 2608/2611 22005KT 4000 BR BKN010



MET'MAP, la Météo Aéronautique d'un coup d'oeil ! - Copyright ORBIFLY Décembre 2007 - Disclaimer

ORBIFLY MET'MAP TEAM :

Programmation & Développement : Alexandra Zaïnal
Sur une idée originale de : Baudouin d'Aumeries
Soutien technique & logistique : Manuel Goepfert
Assistance : Marc-Olivier Méhu

Contact : metmap@orbifly.com




SOURCES & CREDITS :

   NOAA